createdAt,value
2022-08-21T00:00:44.094Z,65.91
2022-08-21T00:01:49.049Z,65.78
2022-08-21T00:02:54.000Z,65.78
2022-08-21T00:03:58.031Z,65.71
2022-08-21T00:05:00.108Z,66.19
2022-08-21T00:06:05.989Z,65.75
2022-08-21T00:07:09.956Z,65.79
2022-08-21T00:08:15.169Z,65.74
2022-08-21T00:09:18.479Z,65.63
2022-08-21T00:10:21.757Z,66.04
2022-08-21T00:11:23.577Z,65.74
2022-08-21T00:12:26.501Z,65.73
2022-08-21T00:13:28.332Z,66.01
2022-08-21T00:14:32.042Z,66.12
2022-08-21T00:15:38.514Z,65.89
2022-08-21T00:16:42.416Z,65.87
2022-08-21T00:17:45.717Z,65.89
2022-08-21T00:18:48.659Z,66.18
2022-08-21T00:19:50.541Z,66.11
2022-08-21T00:20:55.403Z,65.96
2022-08-21T00:21:57.155Z,65.63
2022-08-21T00:23:01.649Z,66.12
2022-08-21T00:24:04.797Z,66.26
2022-08-21T00:25:13.912Z,66.02
2022-08-21T00:26:17.421Z,65.68
2022-08-21T00:27:23.324Z,65.74
2022-08-21T00:28:26.667Z,66.15
2022-08-21T00:29:31.457Z,66.41
2022-08-21T00:30:33.741Z,65.90
2022-08-21T00:31:36.373Z,66.31
2022-08-21T00:32:40.175Z,66.34
2022-08-21T00:33:52.544Z,66.06
2022-08-21T00:35:04.489Z,66.21
2022-08-21T00:36:07.752Z,66.59
2022-08-21T00:37:16.283Z,66.18
2022-08-21T00:38:19.426Z,66.73
2022-08-21T00:39:22.346Z,66.41
2022-08-21T00:40:28.985Z,66.90
2022-08-21T00:41:36.714Z,66.40
2022-08-21T00:42:44.079Z,66.70
2022-08-21T00:43:57.129Z,66.41
2022-08-21T00:44:59.173Z,66.72
2022-08-21T00:46:02.839Z,66.78
2022-08-21T00:47:09.196Z,66.65
2022-08-21T00:48:15.547Z,66.87
2022-08-21T00:49:18.806Z,67.04
2022-08-21T00:50:24.502Z,66.72
2022-08-21T00:51:38.198Z,66.96
2022-08-21T00:52:43.261Z,67.10
2022-08-21T00:53:49.341Z,67.13
2022-08-21T00:54:58.943Z,66.85
2022-08-21T00:56:04.289Z,67.30
2022-08-21T00:57:12.749Z,66.87
2022-08-21T00:58:17.512Z,67.06
2022-08-21T00:59:23.337Z,67.43
2022-08-21T01:00:28.944Z,67.65
2022-08-21T01:01:35.440Z,67.30
2022-08-21T01:02:37.096Z,67.67
2022-08-21T01:03:44.006Z,67.58
2022-08-21T01:04:48.784Z,68.21
2022-08-21T01:05:51.962Z,68.28
2022-08-21T01:06:54.119Z,68.39
2022-08-21T01:07:57.906Z,68.27
2022-08-21T01:08:59.647Z,68.36
2022-08-21T01:10:02.544Z,68.53
2022-08-21T01:11:05.150Z,68.05
2022-08-21T01:12:09.127Z,68.49
2022-08-21T01:13:14.604Z,68.70
2022-08-21T01:14:19.319Z,68.50
2022-08-21T01:15:22.765Z,68.38
2022-08-21T01:16:26.271Z,68.60
2022-08-21T01:17:28.284Z,68.63
2022-08-21T01:18:30.945Z,68.49
2022-08-21T01:19:33.104Z,68.67
2022-08-21T01:20:38.350Z,69.05
2022-08-21T01:21:41.396Z,69.00
2022-08-21T01:22:46.937Z,69.12
2022-08-21T01:23:51.332Z,69.09
2022-08-21T01:24:53.956Z,69.50
2022-08-21T01:25:55.571Z,69.08
2022-08-21T01:26:58.416Z,69.39
2022-08-21T01:28:05.581Z,69.62
2022-08-21T01:29:14.199Z,69.46
2022-08-21T01:30:18.908Z,69.42
2022-08-21T01:31:25.978Z,69.99
2022-08-21T01:32:28.699Z,69.58
2022-08-21T01:33:31.878Z,69.96
2022-08-21T01:34:35.072Z,70.10
2022-08-21T01:35:38.363Z,70.00
2022-08-21T01:36:47.055Z,69.74
2022-08-21T01:37:50.558Z,69.90
2022-08-21T01:38:52.354Z,70.49
2022-08-21T01:39:55.277Z,70.74
2022-08-21T01:40:57.561Z,70.44
2022-08-21T01:42:00.352Z,70.21
2022-08-21T01:43:01.928Z,70.82
2022-08-21T01:44:05.370Z,70.60
2022-08-21T01:45:08.549Z,70.79
2022-08-21T01:46:12.905Z,70.73
2022-08-21T01:47:18.587Z,70.75
2022-08-21T01:48:21.581Z,70.66
2022-08-21T01:49:23.191Z,70.55
2022-08-21T01:50:26.292Z,71.06
2022-08-21T01:51:27.949Z,71.24
2022-08-21T01:52:31.944Z,71.25
2022-08-21T01:53:37.662Z,71.06
2022-08-21T01:54:39.780Z,71.51
2022-08-21T01:55:42.355Z,71.17
2022-08-21T01:56:53.283Z,71.22
2022-08-21T01:57:56.544Z,71.14
2022-08-21T01:58:58.123Z,71.30
2022-08-21T02:00:00.950Z,71.74
2022-08-21T02:01:05.564Z,71.88
2022-08-21T02:02:09.199Z,71.89
2022-08-21T02:03:10.794Z,71.84
2022-08-21T02:04:13.692Z,72.03
2022-08-21T02:05:15.604Z,72.01
2022-08-21T02:06:19.075Z,72.15
2022-08-21T02:07:21.090Z,72.28
2022-08-21T02:08:25.959Z,72.53
2022-08-21T02:09:29.400Z,72.34
2022-08-21T02:10:33.992Z,72.52
2022-08-21T02:11:37.803Z,72.08
2022-08-21T02:12:39.464Z,72.12
2022-08-21T02:13:42.250Z,72.34
2022-08-21T02:14:43.859Z,72.03
2022-08-21T02:15:46.637Z,72.34
2022-08-21T02:16:48.465Z,72.19
2022-08-21T02:17:53.525Z,72.31
2022-08-21T02:18:55.166Z,72.42
2022-08-21T02:19:57.757Z,72.32
2022-08-21T02:20:59.440Z,72.18
2022-08-21T02:22:02.070Z,72.29
2022-08-21T02:23:04.991Z,72.50
2022-08-21T02:24:09.967Z,72.48
2022-08-21T02:25:13.426Z,72.32
2022-08-21T02:26:16.035Z,72.11
2022-08-21T02:27:17.727Z,72.40
2022-08-21T02:28:29.347Z,72.00
2022-08-21T02:29:31.017Z,72.54
2022-08-21T02:30:38.782Z,72.32
2022-08-21T02:31:40.409Z,72.04
2022-08-21T02:32:43.303Z,72.39
2022-08-21T02:33:44.881Z,72.07
2022-08-21T02:34:47.402Z,72.47
2022-08-21T02:35:49.975Z,72.30
2022-08-21T02:36:59.593Z,71.94
2022-08-21T02:38:06.702Z,71.89
2022-08-21T02:39:10.573Z,71.80
2022-08-21T02:40:12.997Z,72.10
2022-08-21T02:41:17.765Z,72.27
2022-08-21T02:42:19.421Z,71.80
2022-08-21T02:43:24.088Z,71.96
2022-08-21T02:44:34.342Z,71.98
2022-08-21T02:45:39.157Z,71.89
2022-08-21T02:46:40.809Z,72.33
2022-08-21T02:47:49.359Z,71.96
2022-08-21T02:48:52.008Z,72.06
2022-08-21T02:49:54.029Z,71.84
2022-08-21T02:51:00.338Z,71.99
2022-08-21T02:52:01.988Z,71.81
2022-08-21T02:53:05.449Z,72.15
2022-08-21T02:54:07.271Z,72.53
2022-08-21T02:55:12.061Z,72.30
2022-08-21T02:56:15.640Z,72.43
2022-08-21T02:57:18.322Z,72.31
2022-08-21T02:58:21.808Z,72.30
2022-08-21T02:59:24.426Z,72.22
2022-08-21T03:00:30.407Z,72.63
2022-08-21T03:01:33.021Z,72.66
2022-08-21T03:02:35.655Z,72.25
2022-08-21T03:03:39.433Z,72.08
2022-08-21T03:04:46.045Z,72.28
2022-08-21T03:05:49.583Z,72.27
2022-08-21T03:06:51.248Z,72.70
2022-08-21T03:07:54.473Z,72.38
2022-08-21T03:08:56.089Z,72.54
2022-08-21T03:09:58.704Z,72.17
2022-08-21T03:11:02.311Z,72.42
2022-08-21T03:12:05.566Z,72.19
2022-08-21T03:13:08.038Z,72.30
2022-08-21T03:14:10.589Z,72.06
2022-08-21T03:15:15.967Z,71.86
2022-08-21T03:16:19.700Z,72.26
2022-08-21T03:17:29.794Z,72.02
2022-08-21T03:18:32.752Z,71.85
2022-08-21T03:19:34.315Z,71.56
2022-08-21T03:20:38.257Z,72.07
2022-08-21T03:21:39.856Z,71.59
2022-08-21T03:22:42.498Z,72.05
2022-08-21T03:23:50.153Z,71.54
2022-08-21T03:24:53.112Z,71.59
2022-08-21T03:25:56.503Z,71.78
2022-08-21T03:27:00.787Z,71.68
2022-08-21T03:28:05.758Z,72.00
2022-08-21T03:29:08.563Z,71.87
2022-08-21T03:30:11.474Z,71.91
2022-08-21T03:31:14.050Z,71.94
2022-08-21T03:32:15.648Z,71.83
2022-08-21T03:33:20.429Z,72.02
2022-08-21T03:34:22.421Z,71.85
2022-08-21T03:35:25.115Z,72.05
2022-08-21T03:36:27.771Z,71.75
2022-08-21T03:37:29.442Z,72.12
2022-08-21T03:38:34.272Z,71.88
2022-08-21T03:39:36.017Z,72.22
2022-08-21T03:40:38.591Z,71.87
2022-08-21T03:41:41.181Z,72.14
2022-08-21T03:42:46.152Z,72.37
2022-08-21T03:43:48.827Z,72.32
2022-08-21T03:44:51.095Z,72.24
2022-08-21T03:45:53.691Z,72.53
2022-08-21T03:46:55.530Z,72.34
2022-08-21T03:48:01.364Z,72.86
2022-08-21T03:49:03.766Z,72.61
2022-08-21T03:50:08.701Z,72.92
2022-08-21T03:51:10.301Z,72.59
2022-08-21T03:52:12.927Z,72.94
2022-08-21T03:53:17.464Z,72.76
2022-08-21T03:54:20.808Z,73.17
2022-08-21T03:55:22.717Z,72.91
2022-08-21T03:56:25.453Z,73.03
2022-08-21T03:57:27.101Z,73.08
2022-08-21T03:58:31.284Z,72.94
2022-08-21T03:59:33.329Z,73.25
2022-08-21T04:00:36.790Z,73.03
2022-08-21T04:01:40.110Z,73.19
2022-08-21T04:02:44.121Z,73.39
2022-08-21T04:03:45.719Z,73.04
2022-08-21T04:04:48.327Z,73.50
2022-08-21T04:05:49.917Z,73.22
2022-08-21T04:06:52.804Z,73.17
2022-08-21T04:07:56.036Z,73.86
2022-08-21T04:08:58.555Z,73.81
2022-08-21T04:10:00.252Z,73.74
2022-08-21T04:11:03.922Z,73.53
2022-08-21T04:12:06.587Z,73.72
2022-08-21T04:13:10.362Z,73.59
2022-08-21T04:14:14.517Z,73.79
2022-08-21T04:15:17.303Z,73.84
2022-08-21T04:16:20.370Z,73.81
2022-08-21T04:17:22.972Z,74.21
2022-08-21T04:18:24.632Z,73.90
2022-08-21T04:19:27.550Z,73.95
2022-08-21T04:20:29.225Z,74.15
2022-08-21T04:21:32.831Z,74.26
2022-08-21T04:22:34.826Z,74.43
2022-08-21T04:23:37.466Z,74.27
2022-08-21T04:24:39.041Z,74.10
2022-08-21T04:25:41.617Z,74.41
2022-08-21T04:26:44.395Z,74.85
2022-08-21T04:27:47.538Z,75.08
2022-08-21T04:28:49.272Z,75.06
2022-08-21T04:29:53.282Z,74.92
2022-08-21T04:30:55.293Z,74.81
2022-08-21T04:31:57.902Z,75.13
2022-08-21T04:33:00.263Z,75.14
2022-08-21T04:34:02.931Z,74.76
2022-08-21T04:35:07.067Z,74.68
2022-08-21T04:36:10.538Z,74.79
2022-08-21T04:37:12.215Z,75.02
2022-08-21T04:38:14.978Z,75.10
2022-08-21T04:39:16.560Z,74.82
2022-08-21T04:40:22.396Z,74.77
2022-08-21T04:41:28.053Z,74.71
2022-08-21T04:42:31.009Z,74.95
2022-08-21T04:43:33.171Z,74.79
2022-08-21T04:44:35.846Z,75.08
2022-08-21T04:45:41.027Z,74.75
2022-08-21T04:46:43.756Z,75.18
2022-08-21T04:47:52.898Z,74.67
2022-08-21T04:48:56.051Z,75.18
2022-08-21T04:49:57.711Z,74.91
2022-08-21T04:51:03.958Z,74.72
2022-08-21T04:52:06.151Z,75.02
2022-08-21T04:53:12.439Z,74.92
2022-08-21T04:54:20.959Z,74.64
2022-08-21T04:55:25.043Z,74.48
2022-08-21T04:56:32.238Z,74.85
2022-08-21T04:57:36.405Z,74.60
2022-08-21T04:58:54.273Z,74.44
2022-08-21T04:59:56.127Z,74.65
2022-08-21T05:01:03.337Z,74.62
2022-08-21T05:02:07.910Z,74.39
2022-08-21T05:03:13.263Z,74.68
2022-08-21T05:04:22.077Z,74.40
2022-08-21T05:05:24.826Z,74.22
2022-08-21T05:06:29.566Z,74.50
2022-08-21T05:07:41.892Z,73.99
2022-08-21T05:08:49.493Z,74.15
2022-08-21T05:09:51.678Z,74.23
2022-08-21T05:10:59.679Z,73.94
2022-08-21T05:12:03.511Z,74.12
2022-08-21T05:13:08.629Z,74.36
2022-08-21T05:14:10.562Z,74.68
2022-08-21T05:15:14.035Z,74.35
2022-08-21T05:16:17.137Z,74.46
2022-08-21T05:17:39.823Z,74.34
2022-08-21T05:18:41.447Z,73.88
2022-08-21T05:19:44.030Z,73.93
2022-08-21T05:20:46.581Z,74.02
2022-08-21T05:21:49.465Z,74.03
2022-08-21T05:22:51.232Z,74.01
2022-08-21T05:23:53.855Z,73.33
2022-08-21T05:24:55.481Z,73.64
2022-08-21T05:25:58.310Z,73.36
2022-08-21T05:27:00.515Z,73.17
2022-08-21T05:28:06.810Z,72.87
2022-08-21T05:29:11.879Z,73.37
2022-08-21T05:30:15.640Z,72.92
2022-08-21T05:31:18.691Z,72.88
2022-08-21T05:32:21.827Z,72.98
2022-08-21T05:33:23.542Z,72.87
2022-08-21T05:34:26.172Z,72.86
2022-08-21T05:35:28.597Z,72.42
2022-08-21T05:36:31.601Z,72.40
2022-08-21T05:37:33.835Z,72.17
2022-08-21T05:38:36.467Z,72.70
2022-08-21T05:40:09.621Z,72.24
2022-08-21T05:41:00.846Z,72.36
2022-08-21T05:42:02.736Z,72.38
2022-08-21T05:43:05.502Z,71.76
2022-08-21T05:44:10.178Z,71.77
2022-08-21T05:45:14.067Z,71.58
2022-08-21T05:46:15.972Z,71.05
2022-08-21T05:47:20.534Z,70.84
2022-08-21T05:48:24.982Z,70.75
2022-08-21T05:49:27.545Z,70.66
2022-08-21T05:50:33.548Z,69.75
2022-08-21T05:51:36.927Z,69.56
2022-08-21T05:52:38.622Z,69.17
2022-08-21T05:53:43.000Z,69.35
2022-08-21T05:54:44.634Z,68.70
2022-08-21T05:55:48.279Z,68.79
2022-08-21T05:56:49.881Z,68.56
2022-08-21T05:57:53.199Z,68.29
2022-08-21T05:58:55.205Z,67.94
2022-08-21T05:59:57.904Z,67.55
2022-08-21T06:01:00.651Z,67.40
2022-08-21T06:02:05.658Z,67.56
2022-08-21T06:03:13.292Z,67.25
2022-08-21T06:04:15.994Z,67.09
2022-08-21T06:05:24.996Z,66.70
2022-08-21T06:06:40.120Z,66.58
2022-08-21T06:07:42.262Z,66.49
2022-08-21T06:08:45.468Z,65.93
2022-08-21T06:09:47.214Z,65.72
2022-08-21T06:10:51.192Z,65.83
2022-08-21T06:11:53.871Z,65.57
2022-08-21T06:12:55.973Z,65.39
2022-08-21T06:13:58.902Z,65.32
2022-08-21T06:15:00.517Z,65.38
2022-08-21T06:16:05.912Z,65.02
2022-08-21T06:17:12.351Z,65.19
2022-08-21T06:18:17.032Z,64.86
2022-08-21T06:19:18.659Z,64.63
2022-08-21T06:20:21.315Z,64.74
2022-08-21T06:21:22.933Z,64.28
2022-08-21T06:22:25.675Z,64.08
2022-08-21T06:23:33.086Z,63.85
2022-08-21T06:24:36.923Z,63.25
2022-08-21T06:25:38.547Z,63.17
2022-08-21T06:26:41.167Z,63.34
2022-08-21T06:27:42.801Z,63.39
2022-08-21T06:28:45.445Z,63.14
2022-08-21T06:29:47.104Z,62.64
2022-08-21T06:30:49.683Z,62.75
2022-08-21T06:31:53.266Z,62.38
2022-08-21T06:32:55.041Z,62.15
2022-08-21T06:33:59.472Z,61.99
2022-08-21T06:35:01.363Z,61.87
2022-08-21T06:36:04.640Z,62.09
2022-08-21T06:37:06.304Z,61.89
2022-08-21T06:38:09.017Z,61.71
2022-08-21T06:39:12.358Z,61.48
2022-08-21T06:40:27.561Z,61.68
2022-08-21T06:41:32.530Z,61.59
2022-08-21T06:42:41.353Z,61.31
2022-08-21T06:43:45.261Z,61.55
2022-08-21T06:44:46.939Z,61.31
2022-08-21T06:45:49.559Z,60.85
2022-08-21T06:46:51.143Z,61.02
2022-08-21T06:47:53.717Z,60.69
2022-08-21T06:48:56.104Z,60.93
2022-08-21T06:50:00.077Z,60.53
2022-08-21T06:51:01.793Z,60.59
2022-08-21T06:52:05.126Z,60.91
2022-08-21T06:53:10.676Z,60.91
2022-08-21T06:54:13.291Z,60.94
2022-08-21T06:55:21.767Z,60.83
2022-08-21T06:56:25.068Z,60.71
2022-08-21T06:57:26.674Z,61.12
2022-08-21T06:58:29.884Z,61.25
2022-08-21T06:59:32.574Z,60.77
2022-08-21T07:00:35.782Z,60.71
2022-08-21T07:01:37.504Z,60.62
2022-08-21T07:02:41.570Z,60.65
2022-08-21T07:03:45.244Z,60.14
2022-08-21T07:04:47.918Z,60.42
2022-08-21T07:05:51.736Z,60.82
2022-08-21T07:06:54.528Z,60.61
2022-08-21T07:07:56.334Z,60.79
2022-08-21T07:08:59.162Z,60.51
2022-08-21T07:10:01.109Z,60.71
2022-08-21T07:11:09.568Z,61.08
2022-08-21T07:12:11.308Z,60.74
2022-08-21T07:13:14.272Z,60.68
2022-08-21T07:14:20.025Z,60.64
2022-08-21T07:15:23.375Z,61.10
2022-08-21T07:16:26.492Z,61.03
2022-08-21T07:17:29.148Z,60.83
2022-08-21T07:18:30.817Z,60.85
2022-08-21T07:19:33.414Z,60.79
2022-08-21T07:20:35.670Z,60.60
2022-08-21T07:21:39.716Z,60.52
2022-08-21T07:22:42.232Z,60.26
2022-08-21T07:23:47.338Z,60.11
2022-08-21T07:24:48.906Z,59.76
2022-08-21T07:25:51.673Z,59.83
2022-08-21T07:26:53.575Z,59.88
2022-08-21T07:27:56.820Z,59.83
2022-08-21T07:28:58.416Z,59.84
2022-08-21T07:30:01.110Z,59.56
2022-08-21T07:31:04.272Z,59.65
2022-08-21T07:32:07.770Z,59.58
2022-08-21T07:33:09.416Z,59.63
2022-08-21T07:34:12.238Z,59.35
2022-08-21T07:35:13.917Z,59.44
2022-08-21T07:36:17.083Z,59.39
2022-08-21T07:37:20.018Z,59.42
2022-08-21T07:38:23.080Z,59.06
2022-08-21T07:39:24.711Z,59.25
2022-08-21T07:40:27.422Z,59.27
2022-08-21T07:41:30.123Z,59.12
2022-08-21T07:42:34.174Z,59.50
2022-08-21T07:43:39.148Z,59.23
2022-08-21T07:44:47.657Z,59.55
2022-08-21T07:45:54.803Z,59.31
2022-08-21T07:46:56.390Z,59.25
2022-08-21T07:47:59.012Z,59.17
2022-08-21T07:49:00.585Z,59.06
2022-08-21T07:50:03.246Z,59.35
2022-08-21T07:51:09.512Z,59.01
2022-08-21T07:52:12.699Z,58.88
2022-08-21T07:53:16.128Z,58.77
2022-08-21T07:54:18.723Z,59.06
2022-08-21T07:55:32.823Z,59.14
2022-08-21T07:56:35.466Z,58.83
2022-08-21T07:57:37.183Z,58.65
2022-08-21T07:58:40.030Z,58.52
2022-08-21T07:59:41.663Z,58.64
2022-08-21T08:00:44.292Z,58.08
2022-08-21T08:01:45.918Z,58.04
2022-08-21T08:02:51.526Z,58.08
2022-08-21T08:03:53.266Z,58.00
2022-08-21T08:04:56.177Z,57.75
2022-08-21T08:05:58.045Z,58.05
2022-08-21T08:07:03.095Z,57.92
2022-08-21T08:08:04.742Z,57.92
2022-08-21T08:09:08.718Z,57.84
2022-08-21T08:10:11.339Z,57.68
2022-08-21T08:11:16.108Z,57.27
2022-08-21T08:12:19.265Z,57.55
2022-08-21T08:13:20.947Z,57.53
2022-08-21T08:14:31.531Z,57.41
2022-08-21T08:15:37.489Z,57.34
2022-08-21T08:16:40.393Z,57.25
2022-08-21T08:17:42.052Z,57.30
2022-08-21T08:18:45.304Z,57.04
2022-08-21T08:19:46.900Z,57.34
2022-08-21T08:20:49.570Z,57.64
2022-08-21T08:21:51.319Z,57.39
2022-08-21T08:22:55.001Z,57.28
2022-08-21T08:23:56.759Z,56.99
2022-08-21T08:25:01.163Z,56.98
2022-08-21T08:26:03.535Z,57.40
2022-08-21T08:27:06.283Z,57.04
2022-08-21T08:28:16.770Z,56.85
2022-08-21T08:29:20.488Z,56.74
2022-08-21T08:30:23.569Z,56.40
2022-08-21T08:31:26.567Z,56.49
2022-08-21T08:32:28.337Z,56.68
2022-08-21T08:33:31.248Z,56.35
2022-08-21T08:34:32.999Z,56.63
2022-08-21T08:35:35.836Z,56.23
2022-08-21T08:36:41.514Z,56.38
2022-08-21T08:37:47.917Z,56.28
2022-08-21T08:38:55.685Z,56.12
2022-08-21T08:39:58.923Z,55.88
2022-08-21T08:41:14.657Z,55.61
2022-08-21T08:42:33.733Z,55.55
2022-08-21T08:43:37.753Z,55.53
2022-08-21T08:44:39.705Z,55.51
2022-08-21T08:45:46.891Z,55.39
2022-08-21T08:46:53.717Z,55.54
2022-08-21T08:48:03.618Z,55.29
2022-08-21T08:49:12.166Z,55.18
2022-08-21T08:50:21.198Z,55.16
2022-08-21T08:51:28.801Z,54.89
2022-08-21T08:52:32.611Z,54.65
2022-08-21T08:53:45.293Z,54.61
2022-08-21T08:54:56.750Z,54.58
2022-08-21T08:56:03.424Z,54.50
2022-08-21T08:57:10.655Z,54.62
2022-08-21T08:58:18.315Z,54.43
2022-08-21T08:59:23.877Z,54.13
2022-08-21T09:00:27.111Z,54.09
2022-08-21T09:01:28.865Z,54.19
2022-08-21T09:02:31.716Z,54.20
2022-08-21T09:03:41.263Z,53.96
2022-08-21T09:04:45.436Z,54.17
2022-08-21T09:05:53.628Z,53.88
2022-08-21T09:07:08.476Z,53.95
2022-08-21T09:08:29.657Z,53.69
2022-08-21T09:09:43.899Z,53.79
2022-08-21T09:10:58.519Z,53.67
2022-08-21T09:12:09.843Z,53.67
2022-08-21T09:13:20.200Z,53.85
2022-08-21T09:14:35.716Z,53.94
2022-08-21T09:15:48.640Z,54.02
2022-08-21T09:17:00.829Z,54.08
2022-08-21T09:18:21.317Z,54.12
2022-08-21T09:19:41.179Z,54.10
2022-08-21T09:20:56.360Z,54.04
2022-08-21T09:22:08.698Z,53.99
2022-08-21T09:23:34.461Z,53.92
2022-08-21T09:24:58.035Z,53.39
2022-08-21T09:26:06.802Z,53.82
2022-08-21T09:27:11.973Z,53.75
2022-08-21T09:28:15.638Z,53.66
2022-08-21T09:29:21.536Z,53.48
2022-08-21T09:30:29.703Z,53.36
2022-08-21T09:31:34.539Z,53.23
2022-08-21T09:32:38.302Z,53.11
2022-08-21T09:33:40.953Z,53.31
2022-08-21T09:34:42.557Z,53.14
2022-08-21T09:35:54.590Z,53.03
2022-08-21T09:36:56.964Z,53.18
2022-08-21T09:38:03.090Z,52.95
2022-08-21T09:39:06.147Z,53.19
2022-08-21T09:40:22.230Z,53.01
2022-08-21T09:41:28.366Z,52.83
2022-08-21T09:42:34.055Z,52.68
2022-08-21T09:43:36.952Z,52.52
2022-08-21T09:44:44.253Z,52.61
2022-08-21T09:45:48.787Z,52.50
2022-08-21T09:46:53.541Z,52.66
2022-08-21T09:47:55.754Z,52.29
2022-08-21T09:49:01.997Z,52.20
2022-08-21T09:50:14.466Z,52.42
2022-08-21T09:51:20.005Z,52.08
2022-08-21T09:52:26.315Z,51.68
2022-08-21T09:53:35.746Z,52.22
2022-08-21T09:54:40.825Z,51.60
2022-08-21T09:56:08.988Z,51.90
2022-08-21T09:57:46.847Z,51.54
2022-08-21T09:58:53.419Z,51.81
2022-08-21T09:59:56.949Z,51.27
2022-08-21T10:01:01.173Z,51.42
2022-08-21T10:02:20.573Z,51.09
2022-08-21T10:03:22.724Z,51.66
2022-08-21T10:04:30.852Z,51.16
2022-08-21T10:05:32.468Z,51.20
2022-08-21T10:06:35.840Z,50.94
2022-08-21T10:07:40.047Z,50.78
2022-08-21T10:08:42.111Z,51.03
2022-08-21T10:09:44.767Z,50.98
2022-08-21T10:10:50.705Z,50.51
2022-08-21T10:12:11.238Z,50.75
2022-08-21T10:13:18.204Z,50.91
2022-08-21T10:14:34.933Z,50.77
2022-08-21T10:15:52.859Z,50.69
2022-08-21T10:17:05.699Z,50.52
2022-08-21T10:18:19.941Z,50.54
2022-08-21T10:19:32.815Z,50.53
2022-08-21T10:20:41.674Z,50.21
2022-08-21T10:21:57.835Z,50.43
2022-08-21T10:23:08.475Z,50.48
2022-08-21T10:24:30.988Z,50.06
2022-08-21T10:25:39.589Z,50.40
2022-08-21T10:27:04.094Z,50.44
2022-08-21T10:28:14.599Z,49.95
2022-08-21T10:29:36.234Z,50.40
2022-08-21T10:30:46.939Z,49.77
2022-08-21T10:31:57.275Z,49.66
2022-08-21T10:33:15.822Z,49.63
2022-08-21T10:34:29.128Z,49.77
2022-08-21T10:35:35.028Z,49.57
2022-08-21T10:36:47.235Z,49.31
2022-08-21T10:38:39.295Z,49.53
2022-08-21T10:39:48.530Z,49.30
2022-08-21T10:41:01.810Z,48.80
2022-08-21T10:42:31.502Z,49.13
2022-08-21T10:43:41.319Z,49.28
2022-08-21T10:44:51.419Z,48.69
2022-08-21T10:46:04.763Z,48.85
2022-08-21T10:47:14.038Z,49.11
2022-08-21T10:48:26.781Z,49.05
2022-08-21T10:49:40.915Z,48.45
2022-08-21T10:50:49.919Z,48.39
2022-08-21T10:52:02.613Z,48.75
2022-08-21T10:53:30.753Z,48.76
2022-08-21T10:54:40.758Z,48.51
2022-08-21T10:55:48.865Z,48.11
2022-08-21T10:56:56.261Z,47.97
2022-08-21T10:58:05.215Z,48.16
2022-08-21T10:59:26.579Z,47.36
2022-08-21T11:00:38.264Z,47.48
2022-08-21T11:01:45.917Z,47.36
2022-08-21T11:02:58.813Z,47.79
2022-08-21T11:04:12.918Z,47.63
2022-08-21T11:05:26.465Z,47.28
2022-08-21T11:06:32.623Z,47.73
2022-08-21T11:07:38.776Z,47.40
2022-08-21T11:08:47.788Z,47.23
2022-08-21T11:09:50.707Z,47.60
2022-08-21T11:11:00.265Z,47.28
2022-08-21T11:12:11.468Z,47.16
2022-08-21T11:13:21.472Z,47.58
2022-08-21T11:14:41.179Z,47.38
2022-08-21T11:15:58.898Z,46.89
2022-08-21T11:17:06.222Z,47.36
2022-08-21T11:18:21.778Z,46.52
2022-08-21T11:19:31.663Z,46.76
2022-08-21T11:20:40.353Z,46.84
2022-08-21T11:21:48.056Z,46.61
2022-08-21T11:23:03.758Z,47.19
2022-08-21T11:24:20.636Z,47.28
2022-08-21T11:25:28.582Z,47.08
2022-08-21T11:26:45.231Z,46.84
2022-08-21T11:27:54.530Z,47.18
2022-08-21T11:29:01.086Z,47.04
2022-08-21T11:30:05.378Z,47.39
2022-08-21T11:31:18.405Z,46.60
2022-08-21T11:32:40.717Z,46.74
2022-08-21T11:33:56.621Z,47.10
2022-08-21T11:35:08.858Z,46.48
2022-08-21T11:36:22.102Z,47.11
2022-08-21T11:37:32.547Z,47.51
2022-08-21T11:38:39.674Z,46.97
2022-08-21T11:39:50.963Z,46.78
2022-08-21T11:41:09.012Z,46.85
2022-08-21T11:42:19.803Z,46.45
2022-08-21T11:43:29.705Z,46.61
2022-08-21T11:44:44.086Z,46.83
2022-08-21T11:45:49.526Z,46.82
2022-08-21T11:47:03.086Z,46.72
2022-08-21T11:48:14.079Z,46.53
2022-08-21T11:49:28.858Z,46.89
2022-08-21T11:50:35.409Z,47.10
2022-08-21T11:51:42.763Z,47.07
2022-08-21T11:52:49.196Z,46.94
2022-08-21T11:53:58.549Z,46.96
2022-08-21T11:55:06.008Z,46.96
2022-08-21T11:56:15.948Z,47.24
2022-08-21T11:57:23.473Z,47.26
2022-08-21T11:58:31.555Z,47.07
2022-08-21T11:59:41.232Z,46.87
2022-08-21T12:00:48.944Z,46.74
2022-08-21T12:01:55.368Z,46.54
2022-08-21T12:03:00.347Z,47.24
2022-08-21T12:04:06.414Z,46.65
2022-08-21T12:05:12.825Z,46.59
2022-08-21T12:06:24.371Z,46.74
2022-08-21T12:07:32.871Z,46.28
2022-08-21T12:08:37.843Z,46.15
2022-08-21T12:09:39.627Z,45.88
2022-08-21T12:10:49.937Z,46.36
2022-08-21T12:12:01.133Z,46.41
2022-08-21T12:13:12.288Z,45.76
2022-08-21T12:14:17.860Z,46.17
2022-08-21T12:15:28.573Z,45.93
2022-08-21T12:16:34.149Z,46.01
2022-08-21T12:17:40.483Z,45.75
2022-08-21T12:18:44.163Z,45.33
2022-08-21T12:19:45.834Z,45.05
2022-08-21T12:21:00.914Z,45.54
2022-08-21T12:22:12.643Z,45.49
2022-08-21T12:23:27.139Z,45.53
2022-08-21T12:24:38.236Z,45.11
2022-08-21T12:25:42.795Z,45.13
2022-08-21T12:26:52.868Z,45.21
2022-08-21T12:28:07.447Z,45.06
2022-08-21T12:29:17.482Z,44.89
2022-08-21T12:30:34.586Z,45.41
2022-08-21T12:31:36.233Z,45.20
2022-08-21T12:32:56.212Z,45.54
2022-08-21T12:34:03.510Z,44.87
2022-08-21T12:35:15.882Z,45.83
2022-08-21T12:36:40.068Z,45.39
2022-08-21T12:37:44.264Z,45.65
2022-08-21T12:38:52.719Z,45.82
2022-08-21T12:39:58.581Z,45.16
2022-08-21T12:41:03.798Z,45.06
2022-08-21T12:42:16.069Z,45.09
2022-08-21T12:43:21.706Z,45.53
2022-08-21T12:44:31.374Z,45.03
2022-08-21T12:45:39.424Z,44.85
2022-08-21T12:46:47.960Z,44.94
2022-08-21T12:47:57.736Z,45.09
2022-08-21T12:49:04.156Z,44.43
2022-08-21T12:50:11.018Z,45.10
2022-08-21T12:51:16.160Z,44.99
2022-08-21T12:52:25.268Z,45.16
2022-08-21T12:53:32.592Z,44.76
2022-08-21T12:54:41.388Z,45.17
2022-08-21T12:55:44.123Z,44.25
2022-08-21T12:56:58.210Z,44.29
2022-08-21T12:58:01.309Z,44.83
2022-08-21T12:59:06.199Z,44.29
2022-08-21T13:00:15.047Z,44.37
2022-08-21T13:01:21.876Z,44.69
2022-08-21T13:02:28.308Z,44.17
2022-08-21T13:03:32.749Z,44.32
2022-08-21T13:04:39.787Z,43.60
2022-08-21T13:05:42.530Z,43.79
2022-08-21T13:06:47.692Z,43.50
2022-08-21T13:07:50.513Z,44.02
2022-08-21T13:08:58.256Z,43.75
2022-08-21T13:10:03.803Z,43.69
2022-08-21T13:11:13.582Z,44.36
2022-08-21T13:12:19.320Z,44.07
2022-08-21T13:13:25.002Z,44.34
2022-08-21T13:14:38.336Z,43.81
2022-08-21T13:15:48.131Z,43.94
2022-08-21T13:16:54.752Z,44.43
2022-08-21T13:18:02.683Z,43.99
2022-08-21T13:19:07.942Z,44.16
2022-08-21T13:20:21.441Z,43.91
2022-08-21T13:21:29.599Z,44.01
2022-08-21T13:22:34.791Z,44.69
2022-08-21T13:23:37.372Z,44.25
2022-08-21T13:24:43.362Z,44.39
2022-08-21T13:25:45.514Z,44.22
2022-08-21T13:26:48.678Z,43.88
2022-08-21T13:28:00.242Z,44.36
2022-08-21T13:29:12.070Z,44.74
2022-08-21T13:30:23.018Z,44.94
2022-08-21T13:31:29.042Z,44.44
2022-08-21T13:32:33.218Z,45.06
2022-08-21T13:33:37.376Z,45.28
2022-08-21T13:34:40.997Z,45.06
2022-08-21T13:35:52.586Z,44.96
2022-08-21T13:36:58.599Z,45.13
2022-08-21T13:38:03.064Z,44.93
2022-08-21T13:39:05.964Z,44.70
2022-08-21T13:40:13.149Z,44.59
2022-08-21T13:41:22.476Z,44.97
2022-08-21T13:42:25.419Z,44.86
2022-08-21T13:43:29.579Z,44.49
2022-08-21T13:44:37.118Z,45.11
2022-08-21T13:45:38.731Z,44.18
2022-08-21T13:46:43.468Z,44.81
2022-08-21T13:47:47.698Z,44.10
2022-08-21T13:48:50.363Z,44.19
2022-08-21T13:49:58.934Z,43.87
2022-08-21T13:51:02.674Z,44.18
2022-08-21T13:52:07.521Z,43.96
2022-08-21T13:53:23.831Z,44.08
2022-08-21T13:54:28.039Z,44.26
2022-08-21T13:55:39.218Z,43.47
2022-08-21T13:56:44.894Z,43.94
2022-08-21T13:57:48.412Z,43.74
2022-08-21T13:58:50.002Z,43.27
2022-08-21T13:59:52.956Z,43.20
2022-08-21T14:00:56.531Z,43.09
2022-08-21T14:02:03.300Z,42.54
2022-08-21T14:03:09.524Z,42.44
2022-08-21T14:04:21.932Z,42.00
2022-08-21T14:05:29.132Z,42.67
2022-08-21T14:06:37.262Z,41.85
2022-08-21T14:07:41.228Z,41.76
2022-08-21T14:08:49.250Z,41.83